sensor_id;sensor_type;location;lat;lon;timestamp;pressure;altitude;pressure_sealevel;temperature;humidity
20350;BME280;10332;50.208;18.988;2023-03-15T00:02:07;96886.75;;;6.52;81.58
20350;BME280;10332;50.208;18.988;2023-03-15T00:04:35;96867.19;;;6.35;81.68
20350;BME280;10332;50.208;18.988;2023-03-15T00:07:03;96903.09;;;6.29;79.91
20350;BME280;10332;50.208;18.988;2023-03-15T00:09:30;96918.13;;;6.11;78.15
20350;BME280;10332;50.208;18.988;2023-03-15T00:11:57;96906.44;;;6.18;77.95
20350;BME280;10332;50.208;18.988;2023-03-15T00:14:25;96909.56;;;5.97;77.78
20350;BME280;10332;50.208;18.988;2023-03-15T00:16:52;96955.13;;;5.87;77.53
20350;BME280;10332;50.208;18.988;2023-03-15T00:19:21;96931.13;;;5.85;77.42
20350;BME280;10332;50.208;18.988;2023-03-15T00:21:48;96949.44;;;5.82;77.21
20350;BME280;10332;50.208;18.988;2023-03-15T00:24:15;96969.44;;;5.80;77.73
20350;BME280;10332;50.208;18.988;2023-03-15T00:26:43;96980.94;;;5.76;77.57
20350;BME280;10332;50.208;18.988;2023-03-15T00:29:10;96997.19;;;5.78;77.90
20350;BME280;10332;50.208;18.988;2023-03-15T00:31:39;96991.19;;;5.78;78.29
20350;BME280;10332;50.208;18.988;2023-03-15T00:34:07;96995.63;;;5.76;78.25
20350;BME280;10332;50.208;18.988;2023-03-15T00:36:34;97012.50;;;5.81;78.30
20350;BME280;10332;50.208;18.988;2023-03-15T00:39:02;97003.31;;;5.77;78.87
20350;BME280;10332;50.208;18.988;2023-03-15T00:41:29;97014.06;;;5.71;79.55
20350;BME280;10332;50.208;18.988;2023-03-15T00:43:58;97021.06;;;5.96;78.63
20350;BME280;10332;50.208;18.988;2023-03-15T00:46:25;97021.53;;;5.76;77.90
20350;BME280;10332;50.208;18.988;2023-03-15T00:48:53;97044.59;;;5.66;78.18
20350;BME280;10332;50.208;18.988;2023-03-15T00:51:23;97045.66;;;5.76;78.09
20350;BME280;10332;50.208;18.988;2023-03-15T00:53:52;97055.72;;;5.81;77.72
20350;BME280;10332;50.208;18.988;2023-03-15T00:56:25;97049.59;;;5.69;76.74
20350;BME280;10332;50.208;18.988;2023-03-15T00:58:53;97069.56;;;5.67;76.78
20350;BME280;10332;50.208;18.988;2023-03-15T01:01:25;97067.56;;;5.58;77.42
20350;BME280;10332;50.208;18.988;2023-03-15T01:03:53;97071.22;;;5.68;77.22
20350;BME280;10332;50.208;18.988;2023-03-15T01:06:25;97078.78;;;5.71;77.05
20350;BME280;10332;50.208;18.988;2023-03-15T01:08:54;97103.41;;;5.64;77.80
20350;BME280;10332;50.208;18.988;2023-03-15T01:11:26;97096.88;;;5.58;78.13
20350;BME280;10332;50.208;18.988;2023-03-15T01:13:56;97119.03;;;5.62;77.83
20350;BME280;10332;50.208;18.988;2023-03-15T01:16:26;97108.16;;;5.57;77.74
20350;BME280;10332;50.208;18.988;2023-03-15T01:18:54;97118.81;;;5.53;78.04
20350;BME280;10332;50.208;18.988;2023-03-15T01:21:23;97100.09;;;5.62;78.02
20350;BME280;10332;50.208;18.988;2023-03-15T01:23:52;97118.59;;;5.56;78.14
20350;BME280;10332;50.208;18.988;2023-03-15T01:26:19;97120.47;;;5.54;78.21
20350;BME280;10332;50.208;18.988;2023-03-15T01:28:47;97124.53;;;5.58;77.54
20350;BME280;10332;50.208;18.988;2023-03-15T01:31:25;97125.25;;;5.60;77.41
20350;BME280;10332;50.208;18.988;2023-03-15T01:33:53;97124.44;;;5.59;77.60
20350;BME280;10332;50.208;18.988;2023-03-15T01:36:21;97132.91;;;5.61;78.03
20350;BME280;10332;50.208;18.988;2023-03-15T01:38:49;97129.41;;;5.62;78.09
20350;BME280;10332;50.208;18.988;2023-03-15T01:41:18;97134.47;;;5.64;78.06
20350;BME280;10332;50.208;18.988;2023-03-15T01:43:46;97134.44;;;5.51;78.68
20350;BME280;10332;50.208;18.988;2023-03-15T01:49:30;97141.47;;;5.49;78.16
20350;BME280;10332;50.208;18.988;2023-03-15T01:52:11;97128.75;;;5.32;78.35
20350;BME280;10332;50.208;18.988;2023-03-15T01:55:14;97161.16;;;5.37;78.84
20350;BME280;10332;50.208;18.988;2023-03-15T01:57:54;97149.41;;;5.46;77.49
20350;BME280;10332;50.208;18.988;2023-03-15T02:00:25;97148.78;;;5.43;77.60
20350;BME280;10332;50.208;18.988;2023-03-15T02:03:04;97144.59;;;5.13;78.35
20350;BME280;10332;50.208;18.988;2023-03-15T02:05:43;97142.28;;;5.08;78.63
20350;BME280;10332;50.208;18.988;2023-03-15T02:08:16;97146.63;;;5.08;78.59
20350;BME280;10332;50.208;18.988;2023-03-15T02:10:50;97141.91;;;5.15;78.38
20350;BME280;10332;50.208;18.988;2023-03-15T02:13:22;97162.59;;;5.15;78.56
20350;BME280;10332;50.208;18.988;2023-03-15T02:15:52;97165.91;;;5.17;77.96
20350;BME280;10332;50.208;18.988;2023-03-15T02:18:20;97154.63;;;5.18;77.97
20350;BME280;10332;50.208;18.988;2023-03-15T02:23:37;97166.94;;;5.14;77.66
20350;BME280;10332;50.208;18.988;2023-03-15T02:26:29;97180.03;;;5.25;76.74
20350;BME280;10332;50.208;18.988;2023-03-15T02:29:00;97184.28;;;5.12;76.50
20350;BME280;10332;50.208;18.988;2023-03-15T02:31:28;97182.06;;;5.20;76.32
20350;BME280;10332;50.208;18.988;2023-03-15T02:33:55;97184.13;;;5.15;76.50
20350;BME280;10332;50.208;18.988;2023-03-15T02:36:26;97180.03;;;5.11;76.20
20350;BME280;10332;50.208;18.988;2023-03-15T02:38:55;97176.91;;;5.20;75.92
20350;BME280;10332;50.208;18.988;2023-03-15T02:41:32;97191.16;;;5.13;75.69
20350;BME280;10332;50.208;18.988;2023-03-15T02:46:37;97201.31;;;5.16;74.97
20350;BME280;10332;50.208;18.988;2023-03-15T02:49:07;97204.91;;;5.28;74.66
20350;BME280;10332;50.208;18.988;2023-03-15T02:51:35;97211.94;;;5.26;75.10
20350;BME280;10332;50.208;18.988;2023-03-15T02:54:02;97215.69;;;5.20;74.94
20350;BME280;10332;50.208;18.988;2023-03-15T02:56:30;97218.38;;;5.19;74.52
20350;BME280;10332;50.208;18.988;2023-03-15T02:58:59;97212.94;;;5.09;73.64
20350;BME280;10332;50.208;18.988;2023-03-15T03:01:27;97215.16;;;5.15;74.40
20350;BME280;10332;50.208;18.988;2023-03-15T03:03:54;97211.47;;;5.05;74.44
20350;BME280;10332;50.208;18.988;2023-03-15T03:06:23;97209.16;;;5.00;74.62
20350;BME280;10332;50.208;18.988;2023-03-15T03:08:50;97212.47;;;5.02;74.96
20350;BME280;10332;50.208;18.988;2023-03-15T03:11:18;97207.78;;;5.09;74.73
20350;BME280;10332;50.208;18.988;2023-03-15T03:13:45;97201.09;;;5.19;74.81
20350;BME280;10332;50.208;18.988;2023-03-15T03:16:13;97198.19;;;4.97;75.38
20350;BME280;10332;50.208;18.988;2023-03-15T03:18:40;97207.22;;;5.04;75.21
20350;BME280;10332;50.208;18.988;2023-03-15T03:21:08;97199.53;;;5.02;75.53
20350;BME280;10332;50.208;18.988;2023-03-15T03:23:36;97216.34;;;5.09;75.46
20350;BME280;10332;50.208;18.988;2023-03-15T03:26:16;97217.28;;;5.08;75.84
20350;BME280;10332;50.208;18.988;2023-03-15T03:28:45;97232.63;;;5.11;75.99
20350;BME280;10332;50.208;18.988;2023-03-15T03:31:23;97247.31;;;5.11;75.68
20350;BME280;10332;50.208;18.988;2023-03-15T03:33:51;97253.41;;;5.10;75.65
20350;BME280;10332;50.208;18.988;2023-03-15T03:36:19;97246.47;;;5.10;75.49
20350;BME280;10332;50.208;18.988;2023-03-15T03:38:46;97257.28;;;5.03;75.90
20350;BME280;10332;50.208;18.988;2023-03-15T03:41:14;97260.16;;;4.98;75.72
20350;BME280;10332;50.208;18.988;2023-03-15T03:43:42;97276.69;;;4.96;75.91
20350;BME280;10332;50.208;18.988;2023-03-15T03:46:09;97268.72;;;4.99;76.25
20350;BME280;10332;50.208;18.988;2023-03-15T03:48:38;97277.81;;;5.06;75.90
20350;BME280;10332;50.208;18.988;2023-03-15T03:51:06;97271.69;;;4.93;76.45
20350;BME280;10332;50.208;18.988;2023-03-15T03:53:33;97280.19;;;4.95;76.88
20350;BME280;10332;50.208;18.988;2023-03-15T03:56:04;97282.31;;;4.88;76.84
20350;BME280;10332;50.208;18.988;2023-03-15T03:58:32;97292.25;;;4.94;76.88
20350;BME280;10332;50.208;18.988;2023-03-15T04:01:00;97294.16;;;5.06;76.74
20350;BME280;10332;50.208;18.988;2023-03-15T04:03:28;97314.00;;;5.06;76.43
20350;BME280;10332;50.208;18.988;2023-03-15T04:05:57;97307.88;;;4.93;76.74
20350;BME280;10332;50.208;18.988;2023-03-15T04:08:26;97324.53;;;5.03;76.63
20350;BME280;10332;50.208;18.988;2023-03-15T04:10:56;97326.91;;;4.92;76.80
20350;BME280;10332;50.208;18.988;2023-03-15T04:13:24;97324.72;;;5.00;76.90
20350;BME280;10332;50.208;18.988;2023-03-15T04:15:52;97326.38;;;5.01;76.91
20350;BME280;10332;50.208;18.988;2023-03-15T04:18:24;97321.03;;;5.04;76.59
20350;BME280;10332;50.208;18.988;2023-03-15T04:20:52;97329.16;;;5.12;76.36
20350;BME280;10332;50.208;18.988;2023-03-15T04:23:22;97320.66;;;5.10;76.27
20350;BME280;10332;50.208;18.988;2023-03-15T04:25:51;97314.13;;;5.19;75.92
20350;BME280;10332;50.208;18.988;2023-03-15T04:28:18;97313.91;;;5.07;76.24
20350;BME280;10332;50.208;18.988;2023-03-15T04:30:48;97316.84;;;5.01;76.47
20350;BME280;10332;50.208;18.988;2023-03-15T04:33:16;97331.72;;;4.98;76.65
20350;BME280;10332;50.208;18.988;2023-03-15T04:35:44;97331.63;;;4.99;76.48
20350;BME280;10332;50.208;18.988;2023-03-15T04:38:11;97331.81;;;4.96;76.84
20350;BME280;10332;50.208;18.988;2023-03-15T04:40:39;97331.72;;;4.98;77.19
20350;BME280;10332;50.208;18.988;2023-03-15T04:43:09;97330.03;;;4.82;77.67
20350;BME280;10332;50.208;18.988;2023-03-15T04:45:36;97334.75;;;4.90;77.27
20350;BME280;10332;50.208;18.988;2023-03-15T04:48:04;97333.50;;;4.97;77.42
20350;BME280;10332;50.208;18.988;2023-03-15T04:50:32;97334.13;;;5.01;77.26
20350;BME280;10332;50.208;18.988;2023-03-15T04:53:00;97340.97;;;5.02;76.99
20350;BME280;10332;50.208;18.988;2023-03-15T04:55:27;97334.88;;;5.03;76.93
20350;BME280;10332;50.208;18.988;2023-03-15T04:57:55;97340.84;;;4.89;77.08
20350;BME280;10332;50.208;18.988;2023-03-15T05:00:23;97340.13;;;4.87;77.12
20350;BME280;10332;50.208;18.988;2023-03-15T05:02:51;97347.78;;;5.03;76.76
20350;BME280;10332;50.208;18.988;2023-03-15T05:05:22;97348.16;;;4.97;76.97
20350;BME280;10332;50.208;18.988;2023-03-15T05:07:50;97348.06;;;4.98;76.53
20350;BME280;10332;50.208;18.988;2023-03-15T05:10:18;97358.00;;;5.06;76.17
20350;BME280;10332;50.208;18.988;2023-03-15T05:12:46;97359.16;;;5.00;76.22
20350;BME280;10332;50.208;18.988;2023-03-15T05:15:13;97362.03;;;4.96;76.46
20350;BME280;10332;50.208;18.988;2023-03-15T05:17:41;97369.34;;;5.03;76.05
20350;BME280;10332;50.208;18.988;2023-03-15T05:20:09;97373.22;;;5.10;75.73
20350;BME280;10332;50.208;18.988;2023-03-15T05:22:39;97370.91;;;5.06;76.03
20350;BME280;10332;50.208;18.988;2023-03-15T05:25:09;97372.19;;;4.99;75.88
20350;BME280;10332;50.208;18.988;2023-03-15T05:27:37;97378.81;;;4.89;76.32
20350;BME280;10332;50.208;18.988;2023-03-15T05:30:06;97376.97;;;4.91;76.17
20350;BME280;10332;50.208;18.988;2023-03-15T05:32:34;97373.66;;;5.03;75.85
20350;BME280;10332;50.208;18.988;2023-03-15T05:35:05;97373.50;;;5.06;75.51
20350;BME280;10332;50.208;18.988;2023-03-15T05:37:33;97371.44;;;4.97;75.57
20350;BME280;10332;50.208;18.988;2023-03-15T05:40:03;97374.88;;;5.11;75.33
20350;BME280;10332;50.208;18.988;2023-03-15T05:42:34;97376.59;;;5.12;74.91
20350;BME280;10332;50.208;18.988;2023-03-15T05:45:02;97386.06;;;5.12;74.90
20350;BME280;10332;50.208;18.988;2023-03-15T05:47:29;97384.28;;;4.98;74.33
20350;BME280;10332;50.208;18.988;2023-03-15T05:49:59;97374.97;;;4.96;74.28
20350;BME280;10332;50.208;18.988;2023-03-15T05:52:27;97376.44;;;5.00;74.00
20350;BME280;10332;50.208;18.988;2023-03-15T05:54:54;97386.44;;;5.06;73.97
20350;BME280;10332;50.208;18.988;2023-03-15T05:57:22;97387.00;;;5.11;73.75
20350;BME280;10332;50.208;18.988;2023-03-15T05:59:49;97397.00;;;5.17;73.59
20350;BME280;10332;50.208;18.988;2023-03-15T06:02:17;97406.63;;;5.29;73.36
20350;BME280;10332;50.208;18.988;2023-03-15T06:04:44;97414.97;;;5.34;73.17
20350;BME280;10332;50.208;18.988;2023-03-15T06:07:12;97424.16;;;5.40;72.94
20350;BME280;10332;50.208;18.988;2023-03-15T06:09:39;97426.59;;;5.27;73.43
20350;BME280;10332;50.208;18.988;2023-03-15T06:12:07;97423.97;;;5.43;72.84
20350;BME280;10332;50.208;18.988;2023-03-15T06:14:34;97431.28;;;5.51;72.47
20350;BME280;10332;50.208;18.988;2023-03-15T06:17:01;97439.53;;;5.57;72.17
20350;BME280;10332;50.208;18.988;2023-03-15T06:19:29;97444.06;;;5.68;71.12
20350;BME280;10332;50.208;18.988;2023-03-15T06:21:56;97443.50;;;5.63;71.26
20350;BME280;10332;50.208;18.988;2023-03-15T06:24:24;97453.66;;;5.66;70.98
20350;BME280;10332;50.208;18.988;2023-03-15T06:26:51;97459.06;;;5.77;70.81
20350;BME280;10332;50.208;18.988;2023-03-15T06:29:22;97466.84;;;5.77;70.17
20350;BME280;10332;50.208;18.988;2023-03-15T06:31:50;97469.81;;;5.85;69.23
20350;BME280;10332;50.208;18.988;2023-03-15T06:34:18;97472.63;;;5.96;68.87
20350;BME280;10332;50.208;18.988;2023-03-15T06:36:47;97477.78;;;6.11;68.18
20350;BME280;10332;50.208;18.988;2023-03-15T06:39:18;97488.06;;;6.26;67.10
20350;BME280;10332;50.208;18.988;2023-03-15T06:41:46;97491.03;;;6.35;67.26
20350;BME280;10332;50.208;18.988;2023-03-15T06:44:13;97501.88;;;6.41;66.97
20350;BME280;10332;50.208;18.988;2023-03-15T06:46:41;97508.63;;;6.44;67.05
20350;BME280;10332;50.208;18.988;2023-03-15T06:49:08;97508.31;;;6.63;66.23
20350;BME280;10332;50.208;18.988;2023-03-15T06:51:36;97517.41;;;6.55;65.86
20350;BME280;10332;50.208;18.988;2023-03-15T06:54:04;97526.47;;;6.63;65.26
20350;BME280;10332;50.208;18.988;2023-03-15T06:56:32;97538.72;;;6.61;64.80
20350;BME280;10332;50.208;18.988;2023-03-15T06:59:03;97530.72;;;6.78;64.62
20350;BME280;10332;50.208;18.988;2023-03-15T07:01:32;97523.09;;;6.89;64.51
20350;BME280;10332;50.208;18.988;2023-03-15T07:03:59;97524.75;;;7.04;63.95
20350;BME280;10332;50.208;18.988;2023-03-15T07:06:27;97538.19;;;6.97;63.46
20350;BME280;10332;50.208;18.988;2023-03-15T07:08:55;97540.34;;;6.90;63.76
20350;BME280;10332;50.208;18.988;2023-03-15T07:11:23;97544.25;;;6.83;64.13
20350;BME280;10332;50.208;18.988;2023-03-15T07:13:51;97543.34;;;6.84;63.81
20350;BME280;10332;50.208;18.988;2023-03-15T07:16:18;97550.19;;;6.71;64.38
20350;BME280;10332;50.208;18.988;2023-03-15T07:18:46;97554.56;;;6.56;64.76
20350;BME280;10332;50.208;18.988;2023-03-15T07:21:13;97547.06;;;6.66;63.46
20350;BME280;10332;50.208;18.988;2023-03-15T07:23:41;97552.47;;;6.90;63.32
20350;BME280;10332;50.208;18.988;2023-03-15T07:26:09;97552.13;;;7.23;62.39
20350;BME280;10332;50.208;18.988;2023-03-15T07:28:36;97559.22;;;7.60;61.00
20350;BME280;10332;50.208;18.988;2023-03-15T07:31:05;97558.75;;;7.68;60.66
20350;BME280;10332;50.208;18.988;2023-03-15T07:33:33;97565.25;;;7.61;59.78
20350;BME280;10332;50.208;18.988;2023-03-15T07:36:05;97562.44;;;7.51;59.51
20350;BME280;10332;50.208;18.988;2023-03-15T07:38:34;97566.16;;;7.47;59.91
20350;BME280;10332;50.208;18.988;2023-03-15T07:41:04;97562.56;;;7.62;59.69
20350;BME280;10332;50.208;18.988;2023-03-15T07:43:33;97576.53;;;7.74;59.43
20350;BME280;10332;50.208;18.988;2023-03-15T07:46:01;97566.44;;;8.09;58.35
20350;BME280;10332;50.208;18.988;2023-03-15T07:48:30;97570.75;;;9.10;56.44
20350;BME280;10332;50.208;18.988;2023-03-15T07:50:58;97570.94;;;9.92;53.70
20350;BME280;10332;50.208;18.988;2023-03-15T07:53:26;97590.16;;;10.02;52.85
20350;BME280;10332;50.208;18.988;2023-03-15T07:55:53;97590.16;;;10.37;51.79
20350;BME280;10332;50.208;18.988;2023-03-15T07:58:21;97592.97;;;10.23;51.13
20350;BME280;10332;50.208;18.988;2023-03-15T08:00:48;97593.72;;;10.01;51.28
20350;BME280;10332;50.208;18.988;2023-03-15T08:03:16;97594.94;;;9.60;51.49
20350;BME280;10332;50.208;18.988;2023-03-15T08:05:44;97586.84;;;9.52;51.90
20350;BME280;10332;50.208;18.988;2023-03-15T08:08:11;97594.59;;;9.41;52.92
20350;BME280;10332;50.208;18.988;2023-03-15T08:10:38;97602.78;;;9.36;52.72
20350;BME280;10332;50.208;18.988;2023-03-15T08:13:06;97607.88;;;9.25;52.91
20350;BME280;10332;50.208;18.988;2023-03-15T08:15:33;97608.97;;;9.47;52.91
20350;BME280;10332;50.208;18.988;2023-03-15T08:18:00;97612.75;;;9.66;52.69
20350;BME280;10332;50.208;18.988;2023-03-15T08:20:32;97616.91;;;9.69;51.96
20350;BME280;10332;50.208;18.988;2023-03-15T08:23:02;97637.72;;;9.58;51.31
20350;BME280;10332;50.208;18.988;2023-03-15T08:25:29;97631.84;;;9.67;51.22
20350;BME280;10332;50.208;18.988;2023-03-15T08:27:57;97641.28;;;9.81;51.13
20350;BME280;10332;50.208;18.988;2023-03-15T08:30:24;97634.13;;;9.72;51.33
20350;BME280;10332;50.208;18.988;2023-03-15T08:32:52;97632.16;;;10.10;51.01
20350;BME280;10332;50.208;18.988;2023-03-15T08:35:21;97634.84;;;10.90;48.83
20350;BME280;10332;50.208;18.988;2023-03-15T08:37:50;97641.47;;;11.39;47.35
20350;BME280;10332;50.208;18.988;2023-03-15T08:40:20;97633.13;;;12.11;45.89
20350;BME280;10332;50.208;18.988;2023-03-15T08:42:52;97635.88;;;12.09;44.08
20350;BME280;10332;50.208;18.988;2023-03-15T08:45:21;97640.94;;;12.64;43.92
20350;BME280;10332;50.208;18.988;2023-03-15T08:47:55;97638.41;;;12.53;43.60
20350;BME280;10332;50.208;18.988;2023-03-15T08:50:25;97649.50;;;13.17;43.15
20350;BME280;10332;50.208;18.988;2023-03-15T08:52:53;97653.44;;;12.81;42.87
20350;BME280;10332;50.208;18.988;2023-03-15T08:55:20;97658.28;;;13.77;41.10
20350;BME280;10332;50.208;18.988;2023-03-15T08:57:48;97661.22;;;14.42;39.51
20350;BME280;10332;50.208;18.988;2023-03-15T09:00:16;97661.06;;;15.56;36.77
20350;BME280;10332;50.208;18.988;2023-03-15T09:02:48;97653.88;;;16.22;35.76
20350;BME280;10332;50.208;18.988;2023-03-15T09:05:16;97656.47;;;16.93;35.01
20350;BME280;10332;50.208;18.988;2023-03-15T09:07:45;97655.50;;;16.76;35.19
20350;BME280;10332;50.208;18.988;2023-03-15T09:10:15;97655.38;;;16.24;35.49
20350;BME280;10332;50.208;18.988;2023-03-15T09:12:46;97668.91;;;15.01;37.44
20350;BME280;10332;50.208;18.988;2023-03-15T09:15:15;97666.31;;;13.85;38.41
20350;BME280;10332;50.208;18.988;2023-03-15T09:17:43;97684.66;;;13.15;39.42
20350;BME280;10332;50.208;18.988;2023-03-15T09:20:12;97678.78;;;13.53;38.57
20350;BME280;10332;50.208;18.988;2023-03-15T09:22:54;97670.00;;;12.82;39.00
20350;BME280;10332;50.208;18.988;2023-03-15T09:25:24;97667.69;;;12.26;39.78
20350;BME280;10332;50.208;18.988;2023-03-15T09:27:53;97672.66;;;12.29;40.26
20350;BME280;10332;50.208;18.988;2023-03-15T09:30:21;97684.69;;;12.31;40.58
20350;BME280;10332;50.208;18.988;2023-03-15T09:32:50;97675.28;;;12.29;39.75
20350;BME280;10332;50.208;18.988;2023-03-15T09:35:19;97676.06;;;12.08;39.77
20350;BME280;10332;50.208;18.988;2023-03-15T09:37:48;97670.31;;;12.26;39.12
20350;BME280;10332;50.208;18.988;2023-03-15T09:40:25;97681.31;;;12.61;38.76
20350;BME280;10332;50.208;18.988;2023-03-15T09:46:08;97677.41;;;12.97;38.39
20350;BME280;10332;50.208;18.988;2023-03-15T09:49:14;97672.47;;;12.83;38.79
20350;BME280;10332;50.208;18.988;2023-03-15T09:51:48;97668.41;;;14.20;37.40
20350;BME280;10332;50.208;18.988;2023-03-15T09:54:41;97676.03;;;14.53;36.62
20350;BME280;10332;50.208;18.988;2023-03-15T09:57:24;97664.00;;;14.50;36.32
20350;BME280;10332;50.208;18.988;2023-03-15T09:59:57;97657.34;;;13.98;36.50
20350;BME280;10332;50.208;18.988;2023-03-15T10:02:30;97669.59;;;13.07;38.32
20350;BME280;10332;50.208;18.988;2023-03-15T10:05:07;97682.88;;;13.46;38.04
20350;BME280;10332;50.208;18.988;2023-03-15T10:07:37;97683.03;;;12.93;38.86
20350;BME280;10332;50.208;18.988;2023-03-15T10:10:21;97684.56;;;12.74;39.03
20350;BME280;10332;50.208;18.988;2023-03-15T10:13:26;97689.53;;;12.36;39.23
20350;BME280;10332;50.208;18.988;2023-03-15T10:24:42;97697.50;;;12.34;39.01
20350;BME280;10332;50.208;18.988;2023-03-15T10:27:33;97705.81;;;12.39;39.53
20350;BME280;10332;50.208;18.988;2023-03-15T10:30:29;97692.56;;;12.20;39.31
20350;BME280;10332;50.208;18.988;2023-03-15T10:33:08;97704.69;;;12.21;39.87
20350;BME280;10332;50.208;18.988;2023-03-15T10:35:39;97704.97;;;12.07;39.75
20350;BME280;10332;50.208;18.988;2023-03-15T10:38:27;97710.25;;;11.84;39.28
20350;BME280;10332;50.208;18.988;2023-03-15T10:40:59;97706.16;;;12.14;39.46
20350;BME280;10332;50.208;18.988;2023-03-15T10:43:30;97708.53;;;12.17;38.84
20350;BME280;10332;50.208;18.988;2023-03-15T10:46:22;97710.94;;;12.41;40.50
20350;BME280;10332;50.208;18.988;2023-03-15T10:49:14;97711.50;;;12.44;40.15
20350;BME280;10332;50.208;18.988;2023-03-15T10:51:46;97707.03;;;12.35;40.44
20350;BME280;10332;50.208;18.988;2023-03-15T10:54:23;97714.06;;;12.35;41.26
20350;BME280;10332;50.208;18.988;2023-03-15T10:57:32;97713.47;;;12.31;42.66
20350;BME280;10332;50.208;18.988;2023-03-15T10:59:59;97715.22;;;12.42;40.33
20350;BME280;10332;50.208;18.988;2023-03-15T11:02:33;97718.13;;;12.60;39.95
20350;BME280;10332;50.208;18.988;2023-03-15T11:05:16;97715.13;;;12.85;38.52
20350;BME280;10332;50.208;18.988;2023-03-15T11:07:57;97714.19;;;13.38;38.97
20350;BME280;10332;50.208;18.988;2023-03-15T11:10:38;97715.63;;;13.00;37.40
20350;BME280;10332;50.208;18.988;2023-03-15T11:13:19;97724.91;;;13.04;38.04
20350;BME280;10332;50.208;18.988;2023-03-15T11:21:12;97725.97;;;11.51;40.19
20350;BME280;10332;50.208;18.988;2023-03-15T11:23:48;97725.00;;;11.52;41.16
20350;BME280;10332;50.208;18.988;2023-03-15T11:26:25;97715.63;;;11.27;41.40
20350;BME280;10332;50.208;18.988;2023-03-15T11:29:20;97715.13;;;11.55;40.73
20350;BME280;10332;50.208;18.988;2023-03-15T11:31:49;97717.28;;;11.61;40.97
20350;BME280;10332;50.208;18.988;2023-03-15T11:34:37;97714.19;;;11.79;40.01
20350;BME280;10332;50.208;18.988;2023-03-15T11:37:37;97720.16;;;12.13;38.78
20350;BME280;10332;50.208;18.988;2023-03-15T11:40:26;97720.66;;;12.71;37.87
20350;BME280;10332;50.208;18.988;2023-03-15T11:46:38;97722.69;;;12.46;38.19
20350;BME280;10332;50.208;18.988;2023-03-15T11:51:55;97739.84;;;13.13;37.17
20350;BME280;10332;50.208;18.988;2023-03-15T11:54:28;97735.75;;;13.81;36.10
20350;BME280;10332;50.208;18.988;2023-03-15T11:59:39;97722.31;;;14.34;36.30
20350;BME280;10332;50.208;18.988;2023-03-15T12:04:44;97714.47;;;14.54;36.12
20350;BME280;10332;50.208;18.988;2023-03-15T12:10:17;97713.34;;;14.95;36.45
20350;BME280;10332;50.208;18.988;2023-03-15T12:12:47;97721.63;;;14.81;36.51
20350;BME280;10332;50.208;18.988;2023-03-15T12:15:43;97736.78;;;14.19;34.96
20350;BME280;10332;50.208;18.988;2023-03-15T12:18:23;97729.38;;;14.43;36.18
20350;BME280;10332;50.208;18.988;2023-03-15T12:23:58;97739.28;;;13.30;36.87
20350;BME280;10332;50.208;18.988;2023-03-15T12:26:41;97737.41;;;12.27;40.80
20350;BME280;10332;50.208;18.988;2023-03-15T12:29:17;97733.63;;;12.08;39.28
20350;BME280;10332;50.208;18.988;2023-03-15T12:31:55;97732.00;;;11.62;40.98
20350;BME280;10332;50.208;18.988;2023-03-15T12:37:22;97746.34;;;11.12;40.44
20350;BME280;10332;50.208;18.988;2023-03-15T12:56:39;97762.41;;;11.19;41.44
20350;BME280;10332;50.208;18.988;2023-03-15T12:59:19;97769.72;;;10.91;41.27
20350;BME280;10332;50.208;18.988;2023-03-15T13:01:50;97764.13;;;10.96;42.78
20350;BME280;10332;50.208;18.988;2023-03-15T13:04:19;97759.78;;;11.19;43.24
20350;BME280;10332;50.208;18.988;2023-03-15T13:10:33;97766.69;;;11.31;39.09
20350;BME280;10332;50.208;18.988;2023-03-15T13:16:44;97768.97;;;11.47;39.68
20350;BME280;10332;50.208;18.988;2023-03-15T13:22:08;97772.66;;;11.44;38.54
20350;BME280;10332;50.208;18.988;2023-03-15T13:25:00;97771.94;;;11.64;37.88
20350;BME280;10332;50.208;18.988;2023-03-15T13:28:17;97775.16;;;11.79;37.94
20350;BME280;10332;50.208;18.988;2023-03-15T13:30:52;97771.47;;;11.93;37.62
20350;BME280;10332;50.208;18.988;2023-03-15T13:36:08;97786.44;;;13.51;36.23
20350;BME280;10332;50.208;18.988;2023-03-15T13:38:44;97790.31;;;13.78;35.52
20350;BME280;10332;50.208;18.988;2023-03-15T13:41:23;97790.41;;;14.07;34.45
20350;BME280;10332;50.208;18.988;2023-03-15T13:43:55;97805.19;;;15.06;33.87
20350;BME280;10332;50.208;18.988;2023-03-15T13:46:28;97804.97;;;15.66;33.24
20350;BME280;10332;50.208;18.988;2023-03-15T13:48:56;97809.34;;;16.12;32.38
20350;BME280;10332;50.208;18.988;2023-03-15T13:51:31;97806.25;;;16.71;31.15
20350;BME280;10332;50.208;18.988;2023-03-15T13:54:16;97802.53;;;18.88;30.14
20350;BME280;10332;50.208;18.988;2023-03-15T13:57:10;97801.75;;;19.92;27.68
20350;BME280;10332;50.208;18.988;2023-03-15T14:02:50;97808.97;;;17.93;29.68
20350;BME280;10332;50.208;18.988;2023-03-15T14:05:26;97812.91;;;15.93;30.90
20350;BME280;10332;50.208;18.988;2023-03-15T14:10:41;97820.00;;;14.28;34.07
20350;BME280;10332;50.208;18.988;2023-03-15T14:13:25;97816.06;;;13.94;34.59
20350;BME280;10332;50.208;18.988;2023-03-15T14:16:11;97816.16;;;13.31;34.87
20350;BME280;10332;50.208;18.988;2023-03-15T14:18:41;97816.97;;;13.52;34.91
20350;BME280;10332;50.208;18.988;2023-03-15T14:21:29;97834.28;;;13.95;34.01
20350;BME280;10332;50.208;18.988;2023-03-15T14:24:05;97814.56;;;15.47;32.82
20350;BME280;10332;50.208;18.988;2023-03-15T14:26:35;97826.00;;;16.12;31.48
20350;BME280;10332;50.208;18.988;2023-03-15T14:29:15;97830.66;;;16.46;30.81
20350;BME280;10332;50.208;18.988;2023-03-15T14:31:49;97827.16;;;16.00;30.78
20350;BME280;10332;50.208;18.988;2023-03-15T14:34:43;97822.31;;;15.39;32.12
20350;BME280;10332;50.208;18.988;2023-03-15T14:37:36;97815.69;;;15.06;32.54
20350;BME280;10332;50.208;18.988;2023-03-15T14:40:18;97814.31;;;15.21;33.01
20350;BME280;10332;50.208;18.988;2023-03-15T14:42:49;97811.41;;;15.24;32.80
20350;BME280;10332;50.208;18.988;2023-03-15T14:45:18;97819.56;;;14.63;32.81